Time;durP1;ratioP1;P1;durP2;ratioP2;P2;SDS_P1;SDS_P2;PMS_P1;PMS_P2;Temp;Humidity;BMP_temperature;BMP_pressure;BME280_temperature;BME280_humidity;BME280_pressure;Samples;Min_cycle;Max_cycle;Signal;HPM_P1;HPM_P2
2023/04/15 00:00:10;;;;;;;8.13;7.57;;;5.90;58.10;;;;;;5011449;28;20649;-64
2023/04/15 00:02:36;;;;;;;10.17;9.43;;;5.90;71.20;;;;;;5011461;28;20181;-65
2023/04/15 00:05:01;;;;;;;11.50;7.37;;;5.80;66.30;;;;;;5011383;28;20192;-65
2023/04/15 00:07:28;;;;;;;7.87;7.37;;;5.80;69.70;;;;;;5010981;28;20180;-64
2023/04/15 00:09:56;;;;;;;11.83;7.77;;;5.80;65.00;;;;;;5011121;28;20250;-64
2023/04/15 00:12:22;;;;;;;6.40;6.10;;;5.80;67.80;;;;;;5010985;28;20250;-65
2023/04/15 00:14:48;;;;;;;6.40;6.00;;;5.70;78.50;;;;;;5011033;28;20196;-64
2023/04/15 00:17:14;;;;;;;8.40;7.10;;;5.70;90.60;;;;;;5011227;28;20682;-64
2023/04/15 00:19:40;;;;;;;8.33;6.40;;;5.70;91.20;;;;;;5010938;28;20310;-64
2023/04/15 00:22:06;;;;;;;6.47;6.07;;;5.70;93.60;;;;;;5013908;28;20176;-64
2023/04/15 00:24:32;;;;;;;7.17;6.57;;;5.60;91.60;;;;;;5014425;28;20173;-64
2023/04/15 00:26:58;;;;;;;7.93;7.40;;;5.50;90.20;;;;;;5014886;28;20194;-64
2023/04/15 00:29:24;;;;;;;8.97;8.23;;;5.50;99.90;;;;;;5014164;28;20479;-64
2023/04/15 00:31:50;;;;;;;8.70;8.10;;;5.50;99.90;;;;;;4997159;28;20752;-64
2023/04/15 00:34:16;;;;;;;7.07;6.67;;;5.40;99.90;;;;;;5014356;28;20188;-64
2023/04/15 00:36:42;;;;;;;7.67;6.50;;;5.40;99.90;;;;;;5014701;28;20196;-64
2023/04/15 00:39:07;;;;;;;6.70;6.30;;;5.40;99.90;;;;;;5014236;28;20633;-64
2023/04/15 00:41:33;;;;;;;7.27;6.70;;;5.40;99.90;;;;;;5014360;28;20214;-65
2023/04/15 00:44:01;;;;;;;6.50;6.10;;;5.40;99.90;;;;;;5014548;28;20174;-64
2023/04/15 00:46:29;;;;;;;12.00;8.07;;;5.40;99.90;;;;;;5014078;28;20196;-65
2023/04/15 00:48:55;;;;;;;10.97;9.03;;;5.40;99.90;;;;;;5015342;28;20176;-65
2023/04/15 00:51:21;;;;;;;10.77;8.97;;;5.30;99.90;;;;;;5013783;28;20588;-65
2023/04/15 00:53:46;;;;;;;8.67;8.07;;;5.30;99.90;;;;;;5014357;28;20571;-65
2023/04/15 00:56:13;;;;;;;47.03;20.93;;;5.20;99.90;;;;;;5014129;28;20189;-65
2023/04/15 00:58:38;;;;;;;31.53;15.40;;;5.20;99.90;;;;;;4994712;28;20165;-65
2023/04/15 01:01:04;;;;;;;18.23;12.60;;;5.20;99.90;;;;;;4994422;28;20172;-65
2023/04/15 01:03:30;;;;;;;7.67;7.17;;;5.20;99.90;;;;;;5012147;28;20623;-64
2023/04/15 01:05:58;;;;;;;7.63;6.97;;;5.20;99.90;;;;;;5014008;28;20215;-64
2023/04/15 01:08:27;;;;;;;7.23;6.73;;;5.10;99.90;;;;;;5014026;28;20180;-65
2023/04/15 01:10:55;;;;;;;8.40;7.67;;;5.10;99.90;;;;;;5013789;28;20183;-65
2023/04/15 01:13:23;;;;;;;7.40;6.97;;;5.10;99.90;;;;;;5013556;28;20266;-64
2023/04/15 01:15:49;;;;;;;8.47;7.63;;;5.10;99.90;;;;;;5013884;28;20192;-64
2023/04/15 01:18:15;;;;;;;7.80;7.27;;;5.00;99.90;;;;;;5013406;28;20653;-64
2023/04/15 01:20:41;;;;;;;8.53;7.83;;;5.00;99.90;;;;;;5013726;28;20167;-64
2023/04/15 01:23:07;;;;;;;8.87;8.03;;;5.00;99.90;;;;;;5013559;28;20184;-64
2023/04/15 01:25:33;;;;;;;10.17;8.60;;;5.00;99.90;;;;;;5013508;28;20203;-64
2023/04/15 01:27:59;;;;;;;9.63;8.67;;;5.00;99.90;;;;;;5013614;28;20529;-64
2023/04/15 01:30:25;;;;;;;8.93;7.33;;;5.00;99.90;;;;;;5013215;28;20187;-64
2023/04/15 01:32:52;;;;;;;7.07;6.63;;;5.00;99.90;;;;;;5012423;28;20208;-65
2023/04/15 01:35:18;;;;;;;8.90;7.47;;;4.90;99.90;;;;;;5013253;28;20275;-65
2023/04/15 01:37:44;;;;;;;9.23;8.47;;;4.90;99.90;;;;;;5013265;28;20176;-64
2023/04/15 01:40:10;;;;;;;8.40;7.83;;;4.80;99.90;;;;;;5013288;28;20164;-65
2023/04/15 01:42:36;;;;;;;7.77;7.37;;;4.80;99.90;;;;;;5013297;28;20176;-65
2023/04/15 01:45:02;;;;;;;7.43;6.93;;;4.80;99.90;;;;;;5013100;28;20204;-65
2023/04/15 01:47:27;;;;;;;8.13;7.33;;;4.80;99.90;;;;;;5013576;28;20234;-65
2023/04/15 01:49:53;;;;;;;8.43;7.60;;;4.80;99.90;;;;;;5012860;28;20188;-65
2023/04/15 01:52:19;;;;;;;9.67;7.97;;;4.80;99.90;;;;;;5013108;28;20192;-65
2023/04/15 01:54:44;;;;;;;7.57;7.07;;;4.80;96.70;;;;;;5012999;28;20183;-65
2023/04/15 01:57:10;;;;;;;7.57;7.07;;;4.70;93.30;;;;;;5013098;28;20172;-64
2023/04/15 01:59:36;;;;;;;7.50;7.00;;;4.70;96.30;;;;;;5012593;28;20654;-64
2023/04/15 02:02:01;;;;;;;8.10;7.27;;;4.60;99.70;;;;;;5013112;28;20176;-64
2023/04/15 02:04:27;;;;;;;8.77;7.97;;;4.50;99.90;;;;;;5012718;28;20183;-64
2023/04/15 02:06:53;;;;;;;8.47;7.83;;;4.50;99.90;;;;;;5012979;28;20196;-64
2023/04/15 02:09:19;;;;;;;7.27;6.87;;;4.50;99.90;;;;;;5012303;28;20250;-64
2023/04/15 02:11:44;;;;;;;7.67;7.07;;;4.40;99.90;;;;;;5012752;28;20192;-64
2023/04/15 02:14:10;;;;;;;7.30;6.80;;;4.40;99.90;;;;;;5012636;28;20183;-64
2023/04/15 02:16:36;;;;;;;9.37;8.47;;;4.40;99.90;;;;;;5012861;28;20645;-64
2023/04/15 02:19:02;;;;;;;8.60;8.03;;;4.40;99.90;;;;;;5012775;28;20171;-64
2023/04/15 02:21:29;;;;;;;8.37;7.77;;;4.40;99.90;;;;;;5012942;28;20680;-64
2023/04/15 02:23:55;;;;;;;8.83;8.00;;;4.40;99.90;;;;;;5013552;28;20518;-64
2023/04/15 02:26:21;;;;;;;8.83;8.23;;;4.30;96.00;;;;;;5012658;28;20203;-64
2023/04/15 02:28:47;;;;;;;13.80;7.87;;;4.30;98.10;;;;;;5012579;28;20196;-64
2023/04/15 02:31:13;;;;;;;7.97;7.37;;;4.30;96.40;;;;;;5011756;28;20172;-66
2023/04/15 02:33:39;;;;;;;8.13;7.33;;;4.30;95.90;;;;;;5012444;28;20515;-64
2023/04/15 02:36:06;;;;;;;7.73;7.17;;;4.20;96.40;;;;;;5012076;28;20208;-64
2023/04/15 02:38:32;;;;;;;8.10;7.60;;;4.20;99.90;;;;;;5012447;28;20172;-63
2023/04/15 02:40:57;;;;;;;7.87;7.33;;;4.10;99.90;;;;;;5011946;28;20183;-64
2023/04/15 02:43:23;;;;;;;8.27;7.77;;;4.10;99.90;;;;;;5012090;28;20626;-65
2023/04/15 02:45:50;;;;;;;9.43;8.40;;;4.10;99.90;;;;;;5011973;28;20796;-65
2023/04/15 02:48:17;;;;;;;10.73;7.87;;;4.10;99.90;;;;;;5012143;28;20520;-65
2023/04/15 02:50:43;;;;;;;10.57;7.63;;;4.10;99.90;;;;;;5011750;28;20187;-65
2023/04/15 02:53:08;;;;;;;8.30;7.87;;;4.10;99.90;;;;;;5011720;28;20222;-64
2023/04/15 02:55:34;;;;;;;9.67;8.77;;;4.00;99.90;;;;;;5011933;28;20218;-64
2023/04/15 02:58:00;;;;;;;9.77;9.10;;;4.00;99.90;;;;;;5011853;28;20642;-65
2023/04/15 03:00:26;;;;;;;10.70;9.83;;;4.00;99.90;;;;;;5011657;28;20179;-65
2023/04/15 03:02:58;;;;;;;9.80;9.20;;;4.10;99.90;;;;;;5011746;28;20214;-65
2023/04/15 03:05:24;;;;;;;10.20;9.43;;;4.00;99.90;;;;;;5011742;28;20203;-65
2023/04/15 03:07:50;;;;;;;8.57;7.87;;;4.00;99.90;;;;;;5011822;28;20176;-65
2023/04/15 03:10:16;;;;;;;9.00;8.40;;;4.00;99.90;;;;;;5011534;28;20172;-65
2023/04/15 03:12:43;;;;;;;9.83;9.20;;;3.90;99.90;;;;;;4994173;28;20219;-65
2023/04/15 03:15:09;;;;;;;9.27;8.47;;;4.00;99.90;;;;;;5011723;28;20247;-65
2023/04/15 03:17:35;;;;;;;8.33;7.63;;;3.90;99.90;;;;;;5011701;28;20183;-65
2023/04/15 03:20:02;;;;;;;8.50;8.00;;;3.90;99.90;;;;;;5011033;28;20258;-65
2023/04/15 03:22:28;;;;;;;8.80;8.00;;;3.90;99.90;;;;;;5011699;28;20190;-65
2023/04/15 03:27:22;;;;;;;9.03;8.40;;;4.00;99.90;;;;;;4970128;28;20581;-63
2023/04/15 03:29:47;;;;;;;10.80;7.73;;;4.00;99.90;;;;;;4972142;28;20173;-64
2023/04/15 03:32:14;;;;;;;9.00;8.40;;;3.90;99.90;;;;;;4972496;28;20193;-64
2023/04/15 03:34:40;;;;;;;11.10;10.30;;;3.80;99.90;;;;;;4972524;28;20174;-63
2023/04/15 03:37:06;;;;;;;10.10;9.13;;;3.80;99.90;;;;;;4972554;28;20332;-64
2023/04/15 03:39:32;;;;;;;9.97;9.37;;;3.80;99.90;;;;;;4958129;28;20193;-63
2023/04/15 03:41:58;;;;;;;11.10;10.30;;;3.80;99.90;;;;;;4953700;29;20170;-67
2023/04/15 03:44:25;;;;;;;10.70;9.93;;;3.80;99.90;;;;;;4955844;28;20607;-67
2023/04/15 03:46:50;;;;;;;10.57;9.87;;;3.70;99.40;;;;;;4937362;29;20202;-69
2023/04/15 03:49:18;;;;;;;10.50;9.90;;;3.70;97.40;;;;;;4964667;28;20207;-67
2023/04/15 03:51:44;;;;;;;11.03;10.43;;;3.70;94.00;;;;;;4973696;28;20193;-68
2023/04/15 03:54:10;;;;;;;11.53;10.73;;;3.70;90.70;;;;;;4946884;28;20181;-69
2023/04/15 03:56:35;;;;;;;10.90;10.40;;;3.70;91.20;;;;;;4957079;28;20756;-70
2023/04/15 03:59:01;;;;;;;12.00;11.17;;;3.70;95.10;;;;;;4959076;28;20213;-68
2023/04/15 04:01:27;;;;;;;11.53;10.73;;;3.60;92.80;;;;;;4957747;28;20261;-69
2023/04/15 04:03:52;;;;;;;11.23;10.53;;;3.60;92.60;;;;;;4946675;28;20228;-70
2023/04/15 04:06:18;;;;;;;11.27;10.47;;;3.60;96.70;;;;;;4977324;28;20194;-69
2023/04/15 04:08:44;;;;;;;10.87;10.23;;;3.50;99.30;;;;;;4977239;28;20239;-71
2023/04/15 04:11:09;;;;;;;10.97;10.33;;;3.50;99.90;;;;;;4975059;28;20281;-66
2023/04/15 04:13:35;;;;;;;11.33;10.27;;;3.50;99.90;;;;;;4957817;28;20719;-69
2023/04/15 04:16:01;;;;;;;9.53;8.93;;;3.40;99.90;;;;;;4958273;28;20249;-69
2023/04/15 04:18:27;;;;;;;10.77;10.00;;;3.40;99.90;;;;;;4977606;28;20192;-69
2023/04/15 04:20:53;;;;;;;10.17;9.37;;;3.50;99.90;;;;;;4977055;28;20170;-66
2023/04/15 04:23:19;;;;;;;11.03;10.23;;;3.50;99.90;;;;;;4958235;28;20197;-67
2023/04/15 04:25:45;;;;;;;9.97;9.37;;;3.40;99.90;;;;;;4957821;28;20585;-68
2023/04/15 04:28:10;;;;;;;11.73;11.03;;;3.40;99.90;;;;;;4974142;28;20185;-68
2023/04/15 04:30:36;;;;;;;10.03;9.43;;;3.40;99.90;;;;;;4976178;28;20192;-67
2023/04/15 04:33:02;;;;;;;10.03;8.90;;;3.40;99.90;;;;;;4944588;29;20205;-67
2023/04/15 04:35:28;;;;;;;12.80;11.63;;;3.40;99.90;;;;;;4957780;28;20249;-71
2023/04/15 04:37:53;;;;;;;15.30;10.93;;;3.40;99.90;;;;;;4957991;28;20652;-70
2023/04/15 04:40:19;;;;;;;12.10;10.23;;;3.40;99.90;;;;;;4965528;28;20208;-62
2023/04/15 04:42:45;;;;;;;9.17;8.57;;;3.40;99.90;;;;;;4975729;28;20224;-63
2023/04/15 04:45:10;;;;;;;9.43;8.53;;;3.30;99.90;;;;;;4967716;28;20639;-63
2023/04/15 04:47:36;;;;;;;10.17;9.33;;;3.40;99.90;;;;;;4956098;29;20182;-63
2023/04/15 04:50:02;;;;;;;9.73;8.87;;;3.40;99.90;;;;;;4944361;28;20208;-66
2023/04/15 04:52:28;;;;;;;9.60;8.90;;;3.50;99.90;;;;;;4975476;28;20205;-63
2023/04/15 04:54:53;;;;;;;8.60;8.03;;;3.60;99.90;;;;;;4953667;28;20596;-65
2023/04/15 04:57:19;;;;;;;9.13;8.53;;;3.60;99.90;;;;;;4955950;28;20171;-63
2023/04/15 04:59:44;;;;;;;9.90;9.33;;;3.70;99.90;;;;;;4958158;28;20564;-63
2023/04/15 05:02:10;;;;;;;9.97;9.13;;;3.70;99.90;;;;;;4975339;28;20252;-63
2023/04/15 05:04:35;;;;;;;9.47;8.80;;;3.80;99.90;;;;;;4974275;28;20197;-63
2023/04/15 05:07:01;;;;;;;9.63;9.00;;;3.80;99.90;;;;;;4962983;28;20745;-62
2023/04/15 05:09:27;;;;;;;10.43;9.50;;;3.90;99.90;;;;;;4974169;28;20256;-63
2023/04/15 05:11:52;;;;;;;8.73;8.23;;;3.90;99.90;;;;;;4975059;28;20196;-64
2023/04/15 05:14:18;;;;;;;10.03;9.07;;;3.90;99.90;;;;;;4974897;28;20261;-64
2023/04/15 05:16:43;;;;;;;9.43;8.57;;;3.90;99.90;;;;;;4974308;28;20197;-64
2023/04/15 05:19:09;;;;;;;8.70;8.20;;;4.00;99.90;;;;;;4974750;28;20249;-64
2023/04/15 05:21:35;;;;;;;10.27;9.33;;;4.00;99.90;;;;;;4960232;28;20174;-64
2023/04/15 05:24:00;;;;;;;8.83;8.23;;;4.10;99.90;;;;;;4955766;29;20181;-64
2023/04/15 05:26:27;;;;;;;8.87;8.37;;;4.10;99.90;;;;;;4967815;28;20746;-64
2023/04/15 05:28:52;;;;;;;13.63;8.73;;;4.20;99.90;;;;;;4974918;28;20189;-64
2023/04/15 05:31:18;;;;;;;8.57;7.97;;;4.30;99.90;;;;;;4962348;28;20260;-63
2023/04/15 05:33:44;;;;;;;9.00;8.10;;;4.30;99.90;;;;;;4955590;29;20328;-64
2023/04/15 05:36:09;;;;;;;7.77;7.30;;;4.30;99.90;;;;;;4946114;28;20201;-64
2023/04/15 05:38:35;;;;;;;9.40;8.23;;;4.50;99.90;;;;;;4974045;28;20184;-63
2023/04/15 05:41:00;;;;;;;7.77;7.17;;;4.50;99.90;;;;;;4973515;28;20182;-64
2023/04/15 05:43:26;;;;;;;8.50;7.90;;;4.60;99.90;;;;;;4974427;28;20173;-64
2023/04/15 05:45:52;;;;;;;7.97;7.40;;;4.70;99.90;;;;;;4969290;28;20197;-63
2023/04/15 05:48:17;;;;;;;8.83;8.23;;;4.90;99.90;;;;;;4955135;29;20170;-64
2023/04/15 05:50:43;;;;;;;8.77;8.17;;;5.00;99.90;;;;;;4958838;28;20176;-64
2023/04/15 05:53:09;;;;;;;8.37;7.67;;;5.20;99.90;;;;;;4973449;28;20201;-64
2023/04/15 05:55:35;;;;;;;9.73;7.80;;;5.40;99.90;;;;;;4954886;29;20186;-64
2023/04/15 05:58:01;;;;;;;8.53;7.77;;;5.60;99.90;;;;;;4955018;29;20166;-64
2023/04/15 06:00:26;;;;;;;7.73;7.03;;;5.80;88.20;;;;;;4955521;28;20261;-64
2023/04/15 06:02:52;;;;;;;8.67;7.43;;;6.10;59.10;;;;;;4967432;28;20184;-64
2023/04/15 06:05:18;;;;;;;8.60;7.90;;;6.20;38.00;;;;;;4974053;28;20189;-64
2023/04/15 06:07:43;;;;;;;11.73;9.47;;;6.50;22.70;;;;;;4962883;28;20193;-64
2023/04/15 06:10:09;;;;;;;10.60;8.07;;;6.80;34.30;;;;;;4954503;29;20178;-64
2023/04/15 06:12:35;;;;;;;9.00;8.10;;;7.20;54.10;;;;;;4958061;28;20213;-64
2023/04/15 06:15:01;;;;;;;9.33;8.37;;;7.70;46.90;;;;;;4954707;29;20174;-64
2023/04/15 06:17:26;;;;;;;9.30;8.00;;;8.10;64.90;;;;;;4954669;28;20924;-64
2023/04/15 06:19:55;;;;;;;10.70;9.10;;;8.50;33.20;;;;;;4960661;28;20178;-65
2023/04/15 06:22:22;;;;;;;9.73;8.90;;;8.70;1.00;;;;;;4969445;28;20240;-64
2023/04/15 06:24:49;;;;;;;9.23;8.47;;;8.90;99.90;;;;;;4973706;28;20184;-64
2023/04/15 06:27:15;;;;;;;9.87;8.20;;;9.10;99.90;;;;;;4972669;28;20212;-64
2023/04/15 06:29:41;;;;;;;8.13;7.50;;;9.20;99.90;;;;;;4973210;28;20193;-64
2023/04/15 06:32:06;;;;;;;8.77;7.97;;;9.30;99.90;;;;;;4971688;28;20589;-64
2023/04/15 06:34:32;;;;;;;8.00;7.33;;;9.30;99.90;;;;;;4973598;28;20205;-64
2023/04/15 06:36:58;;;;;;;9.47;8.77;;;9.40;99.90;;;;;;4972799;28;20798;-64
2023/04/15 06:39:23;;;;;;;7.43;6.80;;;9.50;99.90;;;;;;4953676;29;20178;-64
2023/04/15 06:41:49;;;;;;;8.37;7.50;;;9.50;99.90;;;;;;4953996;28;20698;-64
2023/04/15 06:44:15;;;;;;;8.47;7.87;;;9.50;99.90;;;;;;4955697;28;20181;-64
2023/04/15 06:46:41;;;;;;;8.10;7.30;;;9.70;99.90;;;;;;4972878;28;20197;-64
2023/04/15 06:49:07;;;;;;;8.20;7.50;;;9.70;99.90;;;;;;4955216;28;20190;-64
2023/04/15 06:51:34;;;;;;;7.60;6.97;;;9.70;99.90;;;;;;4953846;29;20186;-65
2023/04/15 06:54:01;;;;;;;8.10;7.33;;;9.80;99.90;;;;;;4970054;28;20526;-64
2023/04/15 06:56:27;;;;;;;7.87;7.27;;;10.10;99.90;;;;;;4973025;28;20679;-64
2023/04/15 06:58:52;;;;;;;7.93;7.30;;;10.30;99.90;;;;;;4971245;28;20268;-64
2023/04/15 07:01:18;;;;;;;8.37;6.63;;;10.50;99.90;;;;;;4971983;28;20198;-64
2023/04/15 07:03:45;;;;;;;7.13;6.53;;;10.60;99.90;;;;;;4971327;28;20185;-64
2023/04/15 07:06:10;;;;;;;8.70;6.83;;;10.70;99.90;;;;;;4969611;28;20201;-64
2023/04/15 07:08:36;;;;;;;6.97;6.43;;;10.80;99.90;;;;;;4953534;28;20193;-64
2023/04/15 07:11:02;;;;;;;8.40;6.63;;;10.90;99.90;;;;;;4938002;28;20175;-64
2023/04/15 07:13:31;;;;;;;8.03;6.70;;;11.00;99.90;;;;;;4972694;28;20201;-64
2023/04/15 07:15:56;;;;;;;7.73;7.03;;;11.30;99.90;;;;;;4971731;28;20618;-64
2023/04/15 07:18:22;;;;;;;8.67;7.77;;;11.60;99.90;;;;;;4972167;28;20212;-64
2023/04/15 07:20:48;;;;;;;7.43;6.80;;;12.00;99.90;;;;;;4971637;28;20237;-64
2023/04/15 07:23:13;;;;;;;9.10;6.50;;;12.30;99.90;;;;;;4971236;28;20228;-64
2023/04/15 07:25:39;;;;;;;7.40;6.60;;;12.60;99.90;;;;;;4968413;28;20248;-64
2023/04/15 07:28:04;;;;;;;8.23;6.60;;;12.90;99.90;;;;;;4953692;29;20620;-64
2023/04/15 07:30:30;;;;;;;7.00;6.27;;;13.20;99.90;;;;;;4951873;28;20200;-64
2023/04/15 07:32:57;;;;;;;6.87;6.27;;;13.40;99.90;;;;;;4953383;29;20600;-64
2023/04/15 07:35:24;;;;;;;7.60;6.90;;;13.70;99.90;;;;;;4953722;28;20577;-64
2023/04/15 07:37:50;;;;;;;6.87;6.27;;;14.00;99.90;;;;;;4970532;28;20184;-64
2023/04/15 07:40:15;;;;;;;7.33;6.00;;;14.20;99.90;;;;;;4972364;28;20655;-65
2023/04/15 07:42:41;;;;;;;8.37;7.30;;;14.40;99.90;;;;;;4953022;28;20272;-64
2023/04/15 07:45:08;;;;;;;7.40;6.70;;;14.40;99.90;;;;;;4952283;29;20644;-64
2023/04/15 07:47:33;;;;;;;9.13;6.47;;;14.30;99.90;;;;;;4969026;28;20193;-64
2023/04/15 07:49:59;;;;;;;7.97;6.60;;;14.30;99.90;;;;;;4972365;28;20670;-64
2023/04/15 07:52:25;;;;;;;6.47;5.90;;;14.50;99.90;;;;;;4956708;28;20337;-64
2023/04/15 07:54:50;;;;;;;6.80;6.20;;;14.70;99.90;;;;;;4953173;29;20162;-64
2023/04/15 07:57:16;;;;;;;6.60;6.00;;;14.70;99.90;;;;;;4954064;28;20201;-64
2023/04/15 07:59:42;;;;;;;7.73;6.13;;;14.70;99.90;;;;;;4952748;29;20765;-64
2023/04/15 08:02:08;;;;;;;6.80;6.03;;;14.70;99.90;;;;;;4965018;28;20648;-62
2023/04/15 08:04:34;;;;;;;5.20;4.80;;;14.80;99.90;;;;;;4971502;28;20261;-64
2023/04/15 08:06:59;;;;;;;5.80;5.20;;;14.90;99.90;;;;;;4960896;28;20202;-65
2023/04/15 08:09:26;;;;;;;5.87;5.27;;;15.00;99.90;;;;;;4952523;29;20190;-64
2023/04/15 08:11:52;;;;;;;5.53;5.13;;;14.80;99.90;;;;;;4968727;28;20196;-65
2023/04/15 08:14:17;;;;;;;6.10;5.50;;;14.60;99.90;;;;;;4972230;28;20170;-65
2023/04/15 08:16:43;;;;;;;5.90;5.30;;;14.40;99.90;;;;;;4971925;28;20725;-65
2023/04/15 08:19:08;;;;;;;5.53;5.13;;;14.30;99.90;;;;;;4962429;28;20182;-65
2023/04/15 08:21:35;;;;;;;5.40;4.60;;;14.50;99.90;;;;;;4953780;28;20252;-64
2023/04/15 08:24:01;;;;;;;4.40;4.10;;;14.50;99.90;;;;;;4953100;29;20257;-65
2023/04/15 08:26:26;;;;;;;4.73;4.43;;;14.30;99.90;;;;;;4956770;28;20642;-64
2023/04/15 08:28:52;;;;;;;4.87;4.57;;;14.30;99.90;;;;;;4971851;28;20170;-64
2023/04/15 08:31:18;;;;;;;4.47;4.17;;;14.10;99.90;;;;;;4970263;28;20551;-65
2023/04/15 08:33:45;;;;;;;5.10;4.60;;;14.10;99.90;;;;;;4971800;28;20212;-65
2023/04/15 08:36:11;;;;;;;4.13;3.80;;;14.10;99.90;;;;;;4968066;28;20186;-65
2023/04/15 08:38:36;;;;;;;4.67;4.37;;;14.10;99.90;;;;;;4972008;28;20180;-65
2023/04/15 08:41:22;;;;;;;4.63;4.33;;;14.00;99.90;;;;;;4971194;28;20220;-65
2023/04/15 08:44:00;;;;;;;5.17;4.80;;;14.10;99.90;;;;;;4956363;28;20177;-65
2023/04/15 08:46:25;;;;;;;4.90;4.50;;;14.30;99.90;;;;;;4970875;28;20216;-64
2023/04/15 08:48:54;;;;;;;5.30;4.80;;;14.40;99.90;;;;;;4956137;29;20183;-65
2023/04/15 08:51:20;;;;;;;4.67;4.20;;;14.50;99.90;;;;;;4955662;28;20178;-65
2023/04/15 08:53:46;;;;;;;4.17;3.97;;;14.80;99.90;;;;;;4970093;28;20236;-65
2023/04/15 08:56:14;;;;;;;4.87;4.57;;;15.20;99.90;;;;;;4975166;28;20576;-67
2023/04/15 08:58:41;;;;;;;4.17;3.97;;;15.40;99.90;;;;;;4944385;28;20180;-65
2023/04/15 09:01:06;;;;;;;4.57;3.83;;;15.40;99.90;;;;;;4955925;29;20271;-65
2023/04/15 09:03:33;;;;;;;5.53;3.93;;;15.60;99.90;;;;;;4955850;28;20289;-66
2023/04/15 09:05:59;;;;;;;4.17;3.87;;;15.80;99.90;;;;;;4955123;29;20204;-65
2023/04/15 09:08:25;;;;;;;4.27;3.97;;;15.80;99.90;;;;;;4956041;28;20610;-65
2023/04/15 09:10:52;;;;;;;4.70;4.40;;;15.90;99.90;;;;;;4955609;28;20185;-64
2023/04/15 09:13:18;;;;;;;4.23;3.93;;;16.10;99.90;;;;;;4947436;28;20229;-64
2023/04/15 09:15:44;;;;;;;4.00;3.80;;;16.10;99.90;;;;;;4975171;28;20615;-64
2023/04/15 09:18:12;;;;;;;4.00;3.80;;;16.20;99.90;;;;;;4974293;28;20699;-65
2023/04/15 09:20:41;;;;;;;3.93;3.73;;;16.00;99.90;;;;;;4974567;28;20170;-63
2023/04/15 09:23:14;;;;;;;4.03;3.80;;;15.80;99.90;;;;;;4974718;28;20232;-65
2023/04/15 09:25:41;;;;;;;4.50;4.20;;;15.50;99.90;;;;;;4975162;28;20201;-66
2023/04/15 09:28:07;;;;;;;4.80;4.50;;;15.60;99.90;;;;;;4973375;28;20232;-65
2023/04/15 09:30:33;;;;;;;4.50;4.20;;;15.80;99.90;;;;;;4973415;28;20173;-65
2023/04/15 09:33:09;;;;;;;5.03;4.63;;;15.80;99.90;;;;;;4969827;28;20556;-64
2023/04/15 09:35:35;;;;;;;4.77;4.47;;;15.60;99.90;;;;;;4954758;29;20193;-65
2023/04/15 09:38:08;;;;;;;4.47;4.17;;;15.70;99.90;;;;;;4956234;28;20178;-66
2023/04/15 09:40:40;;;;;;;5.13;4.73;;;15.70;99.90;;;;;;4954907;29;20233;-66
2023/04/15 09:43:08;;;;;;;5.13;4.83;;;15.50;99.90;;;;;;4959025;28;20197;-67
2023/04/15 09:45:35;;;;;;;4.73;4.43;;;15.40;99.90;;;;;;4974212;28;20197;-66
2023/04/15 09:48:25;;;;;;;5.00;4.43;;;15.50;99.90;;;;;;4970880;28;20185;-66
2023/04/15 09:50:52;;;;;;;4.70;4.40;;;15.80;99.90;;;;;;4954766;28;20186;-66
2023/04/15 09:53:23;;;;;;;4.33;4.03;;;16.00;99.90;;;;;;4960659;28;20201;-66
2023/04/15 09:55:55;;;;;;;4.77;4.47;;;16.30;99.90;;;;;;4974137;28;20193;-65
2023/04/15 09:58:25;;;;;;;4.87;4.57;;;16.50;99.90;;;;;;4969755;28;20174;-66
2023/04/15 10:00:52;;;;;;;4.70;4.40;;;16.40;99.90;;;;;;4954630;29;20170;-66
2023/04/15 10:03:26;;;;;;;5.17;4.67;;;16.50;99.90;;;;;;4954798;28;20189;-66
2023/04/15 10:05:56;;;;;;;5.67;5.17;;;16.80;99.90;;;;;;4953669;29;20201;-65
2023/04/15 10:08:26;;;;;;;7.57;6.57;;;16.90;99.90;;;;;;4957018;28;20244;-66
2023/04/15 10:10:52;;;;;;;8.03;5.57;;;17.10;99.90;;;;;;4973663;28;20558;-66
2023/04/15 10:13:23;;;;;;;5.33;4.93;;;17.50;99.90;;;;;;4971787;28;20197;-65
2023/04/15 10:16:16;;;;;;;5.73;4.30;;;17.70;99.90;;;;;;4954463;29;20190;-66
2023/04/15 10:18:50;;;;;;;6.03;5.13;;;17.90;99.90;;;;;;4958823;28;20178;-66
2023/04/15 10:21:17;;;;;;;4.23;3.90;;;17.80;99.90;;;;;;4973137;28;20180;-66
2023/04/15 10:23:44;;;;;;;4.57;4.13;;;17.80;99.90;;;;;;4968830;28;20613;-67
2023/04/15 10:26:11;;;;;;;4.97;4.67;;;17.50;99.90;;;;;;4963707;28;20329;-65
2023/04/15 10:28:37;;;;;;;4.77;4.37;;;17.40;99.90;;;;;;4972252;28;20182;-65
2023/04/15 10:31:04;;;;;;;3.60;3.40;;;17.20;99.90;;;;;;4953953;29;20180;-64
2023/04/15 10:33:31;;;;;;;3.93;3.73;;;16.90;99.90;;;;;;4955753;28;20608;-66
2023/04/15 10:35:57;;;;;;;4.20;3.90;;;16.80;99.90;;;;;;4973220;28;20196;-66
2023/04/15 10:38:40;;;;;;;5.50;4.07;;;16.70;99.90;;;;;;4972897;28;20591;-65
2023/04/15 10:41:19;;;;;;;3.83;3.63;;;16.50;99.90;;;;;;4953799;28;20174;-65
2023/04/15 10:43:53;;;;;;;4.90;4.37;;;16.40;99.90;;;;;;4956366;28;20531;-65
2023/04/15 10:46:43;;;;;;;5.83;5.13;;;16.50;99.90;;;;;;4955765;28;20717;-65
2023/04/15 10:49:10;;;;;;;4.87;4.50;;;16.60;99.90;;;;;;4967803;28;20269;-66
2023/04/15 10:51:46;;;;;;;4.33;4.03;;;16.30;99.90;;;;;;4953884;29;20178;-65
2023/04/15 10:54:16;;;;;;;4.97;4.67;;;16.30;99.90;;;;;;4958164;28;20184;-66
2023/04/15 10:56:43;;;;;;;3.90;3.70;;;16.50;99.90;;;;;;4973033;28;20192;-65
2023/04/15 10:59:09;;;;;;;3.93;3.73;;;16.70;99.90;;;;;;4969566;28;20648;-66
2023/04/15 11:01:52;;;;;;;4.50;4.20;;;16.50;99.90;;;;;;4972989;28;20264;-67
2023/04/15 11:04:56;;;;;;;4.60;4.30;;;16.70;99.90;;;;;;4968236;28;20252;-66
2023/04/15 11:07:38;;;;;;;4.13;3.93;;;16.60;99.90;;;;;;4953270;29;20178;-65
2023/04/15 11:10:24;;;;;;;4.53;4.30;;;16.10;99.90;;;;;;4963003;28;20669;-65
2023/04/15 11:12:52;;;;;;;4.83;4.57;;;15.60;99.90;;;;;;4972850;28;20284;-66
2023/04/15 11:15:39;;;;;;;4.93;4.50;;;15.60;99.90;;;;;;4970951;28;20213;-66
2023/04/15 11:18:07;;;;;;;4.83;4.30;;;15.80;99.90;;;;;;4972995;28;20184;-66
2023/04/15 11:20:33;;;;;;;4.70;4.40;;;16.00;99.90;;;;;;4972042;28;20181;-65
2023/04/15 11:22:59;;;;;;;4.60;4.20;;;16.00;99.90;;;;;;4972958;28;20177;-66
2023/04/15 11:25:25;;;;;;;6.20;5.87;;;15.80;99.90;;;;;;4970362;28;20243;-65
2023/04/15 11:27:53;;;;;;;5.73;5.37;;;15.70;99.90;;;;;;4972357;28;20662;-65
2023/04/15 11:30:24;;;;;;;5.33;5.03;;;15.60;99.90;;;;;;4965811;28;21072;-65
2023/04/15 11:32:51;;;;;;;5.43;5.07;;;15.60;99.90;;;;;;4969219;28;20200;-65
2023/04/15 11:35:18;;;;;;;5.33;5.00;;;15.70;99.90;;;;;;4958550;28;20198;-65
2023/04/15 11:37:45;;;;;;;4.93;4.50;;;15.70;99.90;;;;;;4955552;28;20241;-70
2023/04/15 11:40:11;;;;;;;4.57;4.37;;;15.60;99.90;;;;;;4952883;28;20170;-65
2023/04/15 11:42:37;;;;;;;5.40;5.10;;;15.50;99.90;;;;;;4953345;29;20178;-65
2023/04/15 11:45:10;;;;;;;5.17;4.87;;;15.70;99.90;;;;;;4953257;29;20515;-65
2023/04/15 11:47:36;;;;;;;5.53;5.23;;;15.90;99.90;;;;;;4953175;29;20174;-65
2023/04/15 11:50:18;;;;;;;4.70;4.30;;;16.00;99.90;;;;;;4952799;29;20182;-65
2023/04/15 11:52:53;;;;;;;4.03;3.83;;;15.50;99.90;;;;;;4952300;29;20352;-66
2023/04/15 11:55:18;;;;;;;4.33;3.93;;;15.10;99.90;;;;;;4952977;28;20204;-66
2023/04/15 11:57:45;;;;;;;4.67;4.37;;;14.90;99.90;;;;;;4953029;29;20178;-66
2023/04/15 12:00:11;;;;;;;4.67;4.37;;;14.80;99.90;;;;;;4952822;29;20310;-66
2023/04/15 12:02:37;;;;;;;4.23;3.93;;;14.70;99.90;;;;;;4962815;28;20525;-65
2023/04/15 12:05:04;;;;;;;4.33;4.10;;;14.80;99.90;;;;;;4972397;28;20539;-65
2023/04/15 12:07:29;;;;;;;4.73;4.43;;;14.80;99.90;;;;;;4972261;28;20177;-65
2023/04/15 12:09:56;;;;;;;5.93;5.53;;;14.70;99.90;;;;;;4972217;28;20180;-66
2023/04/15 12:12:29;;;;;;;6.90;6.30;;;14.70;99.90;;;;;;4972167;28;20274;-65
2023/04/15 12:14:56;;;;;;;6.67;6.20;;;14.90;99.90;;;;;;4972334;28;20175;-64
2023/04/15 12:17:22;;;;;;;8.27;6.80;;;14.90;99.90;;;;;;4973739;28;20201;-65
2023/04/15 12:19:48;;;;;;;6.87;6.03;;;14.80;99.90;;;;;;4975569;28;20188;-64
2023/04/15 12:22:15;;;;;;;10.70;6.47;;;14.70;99.90;;;;;;4976007;28;20542;-66
2023/04/15 12:24:45;;;;;;;7.60;6.87;;;14.70;99.90;;;;;;4976198;28;20244;-65
2023/04/15 12:27:12;;;;;;;10.37;7.70;;;14.70;99.90;;;;;;4975795;28;20209;-65
2023/04/15 12:29:39;;;;;;;7.60;7.00;;;14.60;99.90;;;;;;4975500;28;20186;-66
2023/04/15 12:32:06;;;;;;;7.77;7.07;;;14.60;99.90;;;;;;4974993;28;20823;-64
2023/04/15 12:34:35;;;;;;;7.57;6.87;;;14.50;99.90;;;;;;4973082;28;20264;-63
2023/04/15 12:37:03;;;;;;;7.50;6.80;;;14.60;99.90;;;;;;4975752;28;20603;-64
2023/04/15 12:39:31;;;;;;;7.20;6.60;;;14.70;99.90;;;;;;4975389;28;20186;-65
2023/04/15 12:41:58;;;;;;;8.13;7.53;;;14.70;99.90;;;;;;4975519;28;20559;-65
2023/04/15 12:44:25;;;;;;;7.90;7.33;;;14.50;99.90;;;;;;4975492;28;20643;-66
2023/04/15 12:46:54;;;;;;;6.97;6.40;;;14.30;99.90;;;;;;4975522;28;20197;-65
2023/04/15 12:49:20;;;;;;;8.87;7.13;;;14.00;99.90;;;;;;4974936;28;20186;-66
2023/04/15 12:51:50;;;;;;;7.90;7.30;;;13.90;99.90;;;;;;4974321;28;20177;-64